Time;durP1;ratioP1;P1;durP2;ratioP2;P2;SDS_P1;SDS_P2;PMS_P1;PMS_P2;Temp;Humidity;BMP_temperature;BMP_pressure;BME280_temperature;BME280_humidity;BME280_pressure;Samples;Min_cycle;Max_cycle;Signal;HPM_P1;HPM_P2
2020/12/09 00:01:15;;;;;;;29.25;18.23;;;3.90;99.90;;;;;;5063171;28;20593;-75
2020/12/09 00:03:43;;;;;;;28.80;18.77;;;3.90;1.00;;;;;;5065559;28;20225;-72
2020/12/09 00:06:11;;;;;;;36.35;22.30;;;3.90;38.50;;;;;;5067269;28;20241;-72
2020/12/09 00:08:38;;;;;;;30.95;18.80;;;3.90;99.90;;;;;;5072316;28;20219;-72
2020/12/09 00:11:07;;;;;;;31.75;19.60;;;4.00;99.90;;;;;;5062486;28;20226;-71
2020/12/09 00:13:35;;;;;;;28.45;17.63;;;4.00;99.90;;;;;;5069354;28;20308;-70
2020/12/09 00:16:03;;;;;;;31.77;19.90;;;4.00;99.90;;;;;;5067384;28;20225;-71
2020/12/09 00:18:30;;;;;;;38.45;20.65;;;4.00;77.70;;;;;;5067151;28;20287;-72
2020/12/09 00:20:57;;;;;;;31.98;19.08;;;4.00;10.40;;;;;;5065315;28;20219;-72
2020/12/09 00:23:25;;;;;;;29.45;19.02;;;4.00;86.00;;;;;;5067781;28;20213;-72
2020/12/09 00:25:52;;;;;;;30.77;19.23;;;4.00;1.00;;;;;;5064821;28;20312;-72
2020/12/09 00:28:20;;;;;;;32.13;19.60;;;4.00;99.90;;;;;;5061029;28;20219;-71
2020/12/09 00:30:47;;;;;;;31.85;19.38;;;4.00;99.90;;;;;;5069311;28;20512;-71
2020/12/09 00:33:15;;;;;;;32.88;19.40;;;4.10;99.90;;;;;;5064431;28;20209;-71
2020/12/09 00:35:42;;;;;;;32.15;19.40;;;4.00;99.90;;;;;;5060651;28;20236;-72
2020/12/09 00:38:09;;;;;;;34.10;20.17;;;4.00;1.00;;;;;;5060828;28;20244;-73
2020/12/09 00:40:37;;;;;;;36.08;21.00;;;4.00;1.00;;;;;;5058754;28;20251;-71
2020/12/09 00:43:05;;;;;;;30.92;18.98;;;4.00;1.00;;;;;;5066633;28;20277;-71
2020/12/09 00:45:32;;;;;;;30.80;19.70;;;4.00;1.00;;;;;;5061145;28;20658;-72
2020/12/09 00:47:59;;;;;;;32.75;18.83;;;4.00;99.90;;;;;;5061296;28;20227;-72
2020/12/09 00:50:29;;;;;;;30.05;19.63;;;4.00;1.00;;;;;;5060545;28;20265;-72
2020/12/09 00:52:57;;;;;;;30.67;18.80;;;4.00;1.00;;;;;;5056540;28;20251;-72
2020/12/09 00:55:24;;;;;;;37.58;21.83;;;4.00;1.00;;;;;;5064634;28;20268;-73
2020/12/09 00:57:52;;;;;;;33.33;19.70;;;4.00;1.00;;;;;;5065280;28;20737;-72
2020/12/09 01:00:20;;;;;;;34.05;19.40;;;3.90;1.00;;;;;;5063751;28;20222;-72
2020/12/09 01:02:47;;;;;;;38.55;20.77;;;3.90;1.00;;;;;;5061969;28;20219;-72
2020/12/09 01:05:15;;;;;;;30.00;18.85;;;4.00;20.80;;;;;;5060652;28;20225;-72
2020/12/09 01:07:43;;;;;;;35.72;20.75;;;4.00;1.10;;;;;;5061340;28;20237;-72
2020/12/09 01:10:10;;;;;;;29.20;19.42;;;4.00;7.40;;;;;;5060831;28;20749;-71
2020/12/09 01:12:39;;;;;;;37.13;20.38;;;4.00;1.00;;;;;;5062056;28;20323;-72
2020/12/09 01:15:08;;;;;;;29.10;19.05;;;3.90;64.20;;;;;;5057986;28;20280;-71
2020/12/09 01:17:35;;;;;;;35.20;19.77;;;4.00;99.90;;;;;;5065509;28;20238;-72
2020/12/09 01:20:03;;;;;;;27.52;17.77;;;4.00;99.90;;;;;;5060700;28;20210;-71
2020/12/09 01:22:34;;;;;;;34.05;18.75;;;4.00;99.90;;;;;;5064712;28;20260;-72
2020/12/09 01:25:01;;;;;;;33.35;18.85;;;4.00;99.90;;;;;;5060588;28;20212;-72
2020/12/09 01:27:28;;;;;;;34.05;20.20;;;4.10;99.90;;;;;;5057977;28;20267;-72
2020/12/09 01:29:55;;;;;;;32.50;20.48;;;4.10;99.90;;;;;;5062998;28;20209;-72
2020/12/09 01:32:24;;;;;;;32.38;19.35;;;4.20;92.10;;;;;;5059462;28;20227;-73
2020/12/09 01:34:51;;;;;;;34.15;21.08;;;4.10;1.00;;;;;;5061036;28;20272;-72
2020/12/09 01:37:19;;;;;;;34.70;19.50;;;4.10;1.00;;;;;;5066361;28;20232;-72
2020/12/09 01:39:46;;;;;;;37.75;21.55;;;4.00;93.80;;;;;;5066389;28;20212;-72
2020/12/09 01:42:13;;;;;;;37.20;20.27;;;4.00;99.90;;;;;;5063479;28;20219;-72
2020/12/09 01:44:40;;;;;;;35.20;19.98;;;4.00;99.90;;;;;;5062495;28;20224;-72
2020/12/09 01:47:08;;;;;;;36.72;20.15;;;4.00;99.90;;;;;;5063831;28;20609;-72
2020/12/09 01:49:37;;;;;;;32.95;19.80;;;4.00;99.90;;;;;;5060494;28;20210;-71
2020/12/09 01:52:05;;;;;;;40.63;21.33;;;4.00;99.90;;;;;;5056831;28;20320;-71
2020/12/09 01:54:33;;;;;;;34.58;19.77;;;4.00;99.90;;;;;;5061516;28;20220;-72
2020/12/09 01:57:10;;;;;;;37.50;21.13;;;4.00;99.90;;;;;;5063452;28;20250;-72
2020/12/09 01:59:39;;;;;;;33.55;20.80;;;4.00;99.90;;;;;;5063241;28;20276;-72
2020/12/09 02:02:07;;;;;;;34.53;20.38;;;4.00;99.90;;;;;;5062860;28;20206;-71
2020/12/09 02:04:36;;;;;;;34.92;20.67;;;4.00;99.90;;;;;;5064668;28;20301;-72
2020/12/09 02:07:04;;;;;;;37.47;20.88;;;4.00;99.90;;;;;;5061573;28;20236;-70
2020/12/09 02:09:31;;;;;;;35.45;20.90;;;4.10;99.90;;;;;;5064162;28;20246;-72
2020/12/09 02:11:58;;;;;;;38.85;21.55;;;4.00;99.90;;;;;;5067569;28;20859;-72
2020/12/09 02:14:27;;;;;;;31.40;19.42;;;4.10;99.90;;;;;;5068148;28;20268;-72
2020/12/09 02:16:56;;;;;;;33.88;21.27;;;4.10;99.90;;;;;;5064499;28;20293;-72
2020/12/09 02:19:24;;;;;;;36.00;20.08;;;4.00;99.90;;;;;;5062056;28;20689;-72
2020/12/09 02:21:53;;;;;;;36.92;20.85;;;4.00;99.90;;;;;;5062419;28;20563;-73
2020/12/09 02:24:20;;;;;;;35.50;20.30;;;4.10;99.90;;;;;;5068532;28;20227;-73
2020/12/09 02:26:49;;;;;;;33.90;19.33;;;4.10;99.90;;;;;;5066819;28;20238;-73
2020/12/09 02:29:21;;;;;;;36.47;20.23;;;4.10;99.90;;;;;;5066060;28;20680;-72
2020/12/09 02:31:48;;;;;;;40.97;23.27;;;4.10;99.90;;;;;;5060979;28;20231;-73
2020/12/09 02:34:15;;;;;;;34.33;19.02;;;4.10;99.90;;;;;;5067092;28;20326;-73
2020/12/09 02:36:44;;;;;;;36.08;20.83;;;4.20;99.90;;;;;;5063592;28;20304;-73
2020/12/09 02:39:12;;;;;;;35.92;20.90;;;4.20;99.90;;;;;;5066750;28;20772;-72
2020/12/09 02:41:39;;;;;;;33.60;21.05;;;4.20;99.90;;;;;;5062370;28;20208;-73
2020/12/09 02:44:06;;;;;;;38.17;22.00;;;4.20;99.90;;;;;;5070790;28;20699;-73
2020/12/09 02:46:33;;;;;;;38.25;24.52;;;4.20;99.90;;;;;;5064708;28;20244;-74
2020/12/09 02:49:01;;;;;;;33.90;21.25;;;4.30;99.90;;;;;;5066134;28;20251;-73
2020/12/09 02:51:28;;;;;;;40.17;23.27;;;4.20;99.90;;;;;;5065616;28;20229;-73
2020/12/09 02:53:55;;;;;;;34.13;21.10;;;4.20;99.90;;;;;;5067586;28;20214;-73
2020/12/09 02:56:23;;;;;;;38.95;20.27;;;4.20;99.90;;;;;;5066973;28;20243;-73
2020/12/09 02:58:50;;;;;;;36.63;21.80;;;4.10;99.90;;;;;;5064045;28;20219;-73
2020/12/09 03:01:17;;;;;;;36.50;22.52;;;4.10;99.90;;;;;;5068662;28;20225;-73
2020/12/09 03:03:46;;;;;;;36.45;22.70;;;4.20;99.90;;;;;;5061001;28;20219;-73
2020/12/09 03:06:15;;;;;;;33.35;19.48;;;4.20;99.90;;;;;;5068290;28;20603;-74
2020/12/09 03:08:43;;;;;;;34.72;22.08;;;4.20;99.90;;;;;;5065467;28;20282;-73
2020/12/09 03:11:10;;;;;;;35.13;21.98;;;4.20;99.90;;;;;;5065386;28;20579;-73
2020/12/09 03:13:39;;;;;;;34.88;21.85;;;4.10;99.90;;;;;;5066351;28;20230;-73
2020/12/09 03:16:06;;;;;;;39.05;22.60;;;4.00;99.90;;;;;;5063661;28;20294;-73
2020/12/09 03:18:33;;;;;;;38.88;21.55;;;3.90;1.00;;;;;;5058135;28;20216;-73
2020/12/09 03:21:00;;;;;;;38.05;22.30;;;4.00;1.00;;;;;;5056561;28;20216;-73
2020/12/09 03:23:28;;;;;;;33.42;20.52;;;4.00;1.00;;;;;;5075552;28;20532;-73
2020/12/09 03:25:55;;;;;;;39.45;24.23;;;4.10;1.00;;;;;;5075886;28;20258;-73
2020/12/09 03:28:22;;;;;;;39.28;21.70;;;4.20;99.90;;;;;;5060444;28;20220;-72
2020/12/09 03:30:50;;;;;;;39.35;22.70;;;4.10;99.90;;;;;;5054124;28;20290;-72
2020/12/09 03:33:17;;;;;;;35.85;21.17;;;4.10;99.90;;;;;;5070597;28;20227;-72
2020/12/09 03:35:44;;;;;;;35.85;19.25;;;4.00;99.90;;;;;;5072129;28;20290;-71
2020/12/09 03:38:11;;;;;;;41.30;23.88;;;4.00;99.90;;;;;;5064896;28;20224;-72
2020/12/09 03:40:38;;;;;;;37.47;22.08;;;4.10;99.90;;;;;;5061963;28;20216;-73
2020/12/09 03:43:06;;;;;;;32.53;19.42;;;4.10;99.90;;;;;;5055975;28;20245;-72
2020/12/09 03:45:33;;;;;;;37.72;21.10;;;4.10;99.90;;;;;;5070135;28;20209;-72
2020/12/09 03:48:02;;;;;;;36.17;21.73;;;4.10;99.90;;;;;;5076521;28;20211;-72
2020/12/09 03:50:29;;;;;;;34.47;20.55;;;4.20;99.90;;;;;;5066473;28;20647;-73
2020/12/09 03:52:56;;;;;;;36.63;21.70;;;4.20;99.90;;;;;;5056130;28;20279;-72
2020/12/09 03:55:23;;;;;;;36.47;20.70;;;4.20;99.90;;;;;;5061257;28;20279;-72
2020/12/09 03:57:50;;;;;;;34.33;20.90;;;4.20;99.90;;;;;;5069999;28;20206;-73
2020/12/09 04:00:18;;;;;;;36.03;21.35;;;4.30;99.90;;;;;;5056869;28;20885;-73
2020/12/09 04:02:45;;;;;;;34.95;20.98;;;4.30;99.90;;;;;;5077231;28;21875;-72
2020/12/09 04:05:13;;;;;;;37.00;21.05;;;4.30;99.90;;;;;;5053510;28;20356;-72
2020/12/09 04:07:40;;;;;;;36.20;21.13;;;4.30;99.90;;;;;;5066034;28;20718;-72
2020/12/09 04:10:08;;;;;;;35.17;20.83;;;4.30;99.90;;;;;;5069351;28;20210;-71
2020/12/09 04:12:35;;;;;;;38.13;21.05;;;4.30;99.90;;;;;;5064556;28;20229;-72
2020/12/09 04:15:02;;;;;;;35.63;21.27;;;4.30;99.90;;;;;;5063006;28;20959;-72
2020/12/09 04:17:29;;;;;;;36.55;19.75;;;4.40;99.90;;;;;;5067715;28;20277;-72
2020/12/09 04:19:56;;;;;;;36.42;21.75;;;4.40;99.90;;;;;;5067242;28;20654;-73
2020/12/09 04:22:24;;;;;;;35.78;20.92;;;4.40;99.90;;;;;;5072837;28;20202;-72
2020/12/09 04:24:52;;;;;;;37.20;22.10;;;4.40;99.90;;;;;;5066496;28;20213;-70
2020/12/09 04:27:19;;;;;;;37.67;22.08;;;4.30;99.90;;;;;;5061320;28;20255;-72
2020/12/09 04:29:46;;;;;;;36.42;21.80;;;4.30;99.90;;;;;;5063818;28;20216;-72
2020/12/09 04:32:13;;;;;;;35.30;21.35;;;4.30;99.90;;;;;;5072678;28;20330;-72
2020/12/09 04:34:41;;;;;;;40.25;21.67;;;4.30;99.90;;;;;;5075152;28;20213;-73
2020/12/09 04:37:08;;;;;;;37.35;21.75;;;4.30;99.90;;;;;;5051954;28;20347;-72
2020/12/09 04:39:37;;;;;;;33.92;20.08;;;4.30;99.90;;;;;;5055724;28;20667;-72
2020/12/09 04:42:04;;;;;;;34.85;19.75;;;4.30;99.90;;;;;;5070972;28;20284;-72
2020/12/09 04:44:31;;;;;;;39.28;22.33;;;4.30;99.90;;;;;;5065808;28;20215;-72
2020/12/09 04:47:03;;;;;;;34.70;20.80;;;4.30;99.90;;;;;;5070521;28;20770;-72
2020/12/09 04:49:40;;;;;;;35.60;20.25;;;4.30;99.90;;;;;;5060954;28;20705;-72
2020/12/09 04:52:30;;;;;;;34.15;19.70;;;4.30;99.90;;;;;;5062641;28;20710;-73
2020/12/09 04:55:07;;;;;;;36.88;22.27;;;4.30;99.90;;;;;;5066407;28;20232;-73
2020/12/09 04:57:42;;;;;;;35.55;21.50;;;4.30;99.90;;;;;;5070291;28;20231;-73
2020/12/09 05:00:11;;;;;;;35.97;19.58;;;4.30;99.90;;;;;;5068049;28;20706;-74
2020/12/09 05:02:44;;;;;;;31.90;19.33;;;4.30;99.90;;;;;;5075157;28;20240;-73
2020/12/09 05:05:13;;;;;;;36.75;20.52;;;4.30;99.90;;;;;;5050756;28;20217;-73
2020/12/09 05:07:46;;;;;;;33.28;19.73;;;4.30;99.90;;;;;;5064929;28;20250;-73
2020/12/09 05:10:15;;;;;;;34.70;19.92;;;4.30;99.90;;;;;;5063896;28;20278;-73
2020/12/09 05:12:44;;;;;;;36.80;19.95;;;4.30;99.90;;;;;;5062755;28;20243;-73
2020/12/09 05:15:18;;;;;;;33.63;19.92;;;4.30;99.90;;;;;;5067001;28;20723;-73
2020/12/09 05:18:00;;;;;;;40.13;22.10;;;4.40;99.90;;;;;;5063976;28;20280;-72
2020/12/09 05:20:30;;;;;;;32.28;20.48;;;4.30;99.90;;;;;;5064285;28;20237;-73
2020/12/09 05:22:58;;;;;;;33.47;18.92;;;4.30;99.90;;;;;;5065362;28;20220;-72
2020/12/09 05:25:28;;;;;;;33.53;19.00;;;4.30;99.90;;;;;;5067374;28;20213;-72
2020/12/09 05:27:55;;;;;;;36.33;21.83;;;4.30;99.90;;;;;;5064614;28;20271;-75
2020/12/09 05:30:40;;;;;;;34.97;20.73;;;4.30;99.90;;;;;;5066212;28;20217;-73
2020/12/09 05:33:09;;;;;;;30.13;19.15;;;4.30;99.90;;;;;;5066809;28;20233;-74
2020/12/09 05:35:39;;;;;;;35.67;18.92;;;4.30;99.90;;;;;;5067462;28;20216;-74
2020/12/09 05:38:18;;;;;;;35.97;19.73;;;4.30;99.90;;;;;;5069185;28;20278;-74
2020/12/09 05:40:47;;;;;;;36.60;19.80;;;4.30;99.90;;;;;;5057270;28;20308;-73
2020/12/09 05:43:18;;;;;;;30.55;19.50;;;4.30;99.90;;;;;;5059940;28;20265;-75
2020/12/09 05:45:45;;;;;;;38.80;22.27;;;4.30;99.90;;;;;;5069663;28;20268;-74
2020/12/09 05:48:18;;;;;;;35.97;20.52;;;4.30;99.90;;;;;;5060263;28;20230;-73
2020/12/09 05:50:47;;;;;;;32.95;18.42;;;4.30;1.00;;;;;;5064266;28;20224;-74
2020/12/09 05:53:16;;;;;;;33.60;19.65;;;4.30;1.00;;;;;;5062037;28;20227;-73
2020/12/09 05:55:44;;;;;;;33.33;20.92;;;4.30;99.90;;;;;;5075654;28;20771;-74
2020/12/09 05:58:27;;;;;;;31.63;20.15;;;4.30;99.90;;;;;;5062918;28;20226;-74
2020/12/09 06:01:11;;;;;;;29.10;18.13;;;4.30;1.00;;;;;;5055941;28;20685;-75
2020/12/09 06:03:40;;;;;;;30.55;18.40;;;4.30;1.00;;;;;;5063340;28;20202;-75
2020/12/09 06:06:16;;;;;;;31.23;18.95;;;4.30;1.00;;;;;;5056804;28;20385;-74
2020/12/09 06:08:45;;;;;;;29.38;18.15;;;4.30;1.00;;;;;;5062034;28;20212;-75
2020/12/09 06:11:14;;;;;;;31.35;18.35;;;4.40;1.00;;;;;;5059163;28;20226;-75
2020/12/09 06:13:42;;;;;;;33.83;19.15;;;4.30;99.90;;;;;;5055171;28;20228;-73
2020/12/09 06:16:11;;;;;;;34.60;19.52;;;4.30;1.00;;;;;;5059617;28;20241;-75
2020/12/09 06:18:42;;;;;;;35.13;19.92;;;4.30;1.00;;;;;;5056928;28;20955;-74
2020/12/09 06:21:09;;;;;;;35.83;19.58;;;4.30;1.00;;;;;;5062164;28;20520;-75
2020/12/09 06:23:37;;;;;;;28.58;18.00;;;4.30;1.00;;;;;;5057704;28;20265;-75
2020/12/09 06:26:05;;;;;;;27.48;18.23;;;4.30;1.00;;;;;;5052807;28;20654;-74
2020/12/09 06:28:35;;;;;;;30.80;17.95;;;4.30;1.00;;;;;;5055143;28;20227;-75
2020/12/09 06:31:14;;;;;;;27.92;17.58;;;4.30;1.00;;;;;;5065293;28;20680;-75
2020/12/09 06:33:42;;;;;;;31.42;17.90;;;4.30;1.00;;;;;;5065538;28;20797;-75
2020/12/09 06:36:25;;;;;;;28.92;17.30;;;4.30;1.00;;;;;;5054501;28;20240;-74
2020/12/09 06:39:12;;;;;;;32.75;17.52;;;4.30;1.00;;;;;;5051225;28;20222;-75
2020/12/09 06:41:41;;;;;;;28.85;16.35;;;4.30;1.00;;;;;;5062445;28;20216;-75
2020/12/09 06:44:10;;;;;;;30.00;18.27;;;4.30;1.00;;;;;;5057121;28;20229;-75
2020/12/09 06:46:44;;;;;;;30.35;19.55;;;4.30;1.00;;;;;;5060779;28;20509;-73
2020/12/09 06:49:40;;;;;;;29.25;19.25;;;4.30;1.00;;;;;;5065260;28;20227;-75
2020/12/09 06:52:35;;;;;;;27.63;17.90;;;4.30;1.00;;;;;;5072116;28;20229;-74
2020/12/09 06:55:05;;;;;;;30.65;18.42;;;4.30;1.00;;;;;;5056129;28;20219;-74
2020/12/09 06:57:40;;;;;;;30.75;18.95;;;4.30;1.00;;;;;;5074643;28;20668;-74
2020/12/09 07:00:17;;;;;;;29.20;17.48;;;4.30;1.00;;;;;;5079593;28;20216;-75
2020/12/09 07:02:47;;;;;;;29.27;18.05;;;4.30;1.00;;;;;;5076274;28;20886;-74
2020/12/09 07:05:17;;;;;;;28.30;17.83;;;4.30;1.00;;;;;;5067013;28;20222;-73
2020/12/09 07:07:47;;;;;;;30.60;18.80;;;4.30;1.00;;;;;;5058331;28;20524;-74
2020/12/09 07:10:27;;;;;;;35.87;20.27;;;4.30;1.00;;;;;;5065916;28;20489;-75
2020/12/09 07:13:03;;;;;;;31.58;18.27;;;4.30;1.00;;;;;;5067030;28;20572;-74
2020/12/09 07:15:31;;;;;;;35.05;19.67;;;4.30;1.00;;;;;;5067135;28;20211;-74
2020/12/09 07:17:59;;;;;;;28.33;17.38;;;4.30;1.00;;;;;;5068073;28;20274;-75
2020/12/09 07:20:26;;;;;;;30.65;17.15;;;4.30;1.00;;;;;;5067827;28;20212;-75
2020/12/09 07:22:53;;;;;;;28.77;17.15;;;4.30;1.00;;;;;;5066965;28;20218;-74
2020/12/09 07:25:21;;;;;;;31.90;18.92;;;4.40;1.00;;;;;;5067818;28;20232;-74
2020/12/09 07:27:49;;;;;;;27.75;17.92;;;4.40;1.00;;;;;;5067644;28;20328;-74
2020/12/09 07:30:18;;;;;;;29.02;19.13;;;4.40;1.00;;;;;;5066802;28;20236;-73
2020/12/09 07:32:48;;;;;;;27.30;17.85;;;4.40;1.00;;;;;;5067129;28;20231;-74
2020/12/09 07:35:18;;;;;;;28.90;17.40;;;4.40;1.00;;;;;;5069085;28;20835;-75
2020/12/09 07:37:48;;;;;;;25.30;16.95;;;4.30;1.00;;;;;;5065495;28;20818;-75
2020/12/09 07:40:22;;;;;;;33.10;18.63;;;4.40;1.00;;;;;;5065417;28;20291;-74
2020/12/09 07:43:06;;;;;;;28.45;18.13;;;4.40;1.00;;;;;;5065257;28;20301;-74
2020/12/09 07:45:34;;;;;;;30.10;18.55;;;4.40;1.00;;;;;;5066775;28;20224;-75
2020/12/09 07:48:04;;;;;;;27.50;18.35;;;4.40;1.00;;;;;;5065522;28;20220;-74
2020/12/09 07:50:32;;;;;;;31.67;19.02;;;4.40;1.00;;;;;;5066991;28;20229;-74
2020/12/09 07:53:01;;;;;;;33.28;19.30;;;4.30;1.00;;;;;;5064998;28;20310;-73
2020/12/09 07:55:29;;;;;;;30.23;18.35;;;4.40;1.00;;;;;;5068145;28;20684;-74
2020/12/09 07:58:04;;;;;;;26.92;17.27;;;4.30;1.00;;;;;;5066958;28;20208;-74
2020/12/09 08:00:36;;;;;;;27.30;17.25;;;4.40;1.00;;;;;;5066577;28;20622;-74
2020/12/09 08:03:04;;;;;;;25.50;17.58;;;4.40;1.00;;;;;;5066607;28;20207;-72
2020/12/09 08:05:36;;;;;;;28.42;18.98;;;4.50;1.00;;;;;;5066519;28;20267;-73
2020/12/09 08:08:07;;;;;;;30.20;18.45;;;4.50;1.00;;;;;;5066930;28;20216;-72
2020/12/09 08:10:35;;;;;;;26.27;17.30;;;4.50;99.90;;;;;;5061755;28;20230;-74
2020/12/09 08:13:06;;;;;;;25.15;17.23;;;4.50;99.90;;;;;;5066917;28;20288;-74
2020/12/09 08:15:34;;;;;;;28.63;19.33;;;4.40;99.90;;;;;;5066560;28;20216;-74
2020/12/09 08:18:02;;;;;;;27.35;19.05;;;4.30;99.90;;;;;;5064718;28;20287;-74
2020/12/09 08:20:30;;;;;;;30.75;20.65;;;4.30;99.90;;;;;;5067923;28;20673;-75
2020/12/09 08:23:00;;;;;;;29.42;18.65;;;4.30;99.90;;;;;;5064296;28;20766;-74
2020/12/09 08:25:29;;;;;;;25.98;17.15;;;4.30;1.00;;;;;;5066549;28;20217;-75
2020/12/09 08:28:04;;;;;;;34.20;19.45;;;4.40;1.00;;;;;;5067195;28;20269;-75
2020/12/09 08:30:31;;;;;;;31.45;19.70;;;4.30;1.00;;;;;;5065161;28;20222;-74
2020/12/09 08:33:15;;;;;;;35.08;21.15;;;4.30;1.00;;;;;;5062874;28;20284;-75
2020/12/09 08:35:57;;;;;;;31.45;20.08;;;4.30;1.00;;;;;;5065737;28;20272;-75
2020/12/09 08:38:32;;;;;;;34.90;21.52;;;4.30;1.00;;;;;;5065833;28;20224;-75
2020/12/09 08:41:17;;;;;;;29.48;19.23;;;4.40;1.00;;;;;;5064277;28;20206;-75
2020/12/09 08:43:46;;;;;;;32.67;18.50;;;4.40;1.00;;;;;;5066940;28;20253;-75
2020/12/09 08:46:13;;;;;;;28.55;18.48;;;4.40;1.00;;;;;;5066888;28;20325;-74
2020/12/09 08:48:41;;;;;;;27.08;17.80;;;4.40;1.00;;;;;;5065577;28;20597;-75
2020/12/09 08:51:08;;;;;;;30.27;17.98;;;4.40;1.00;;;;;;5066092;28;20626;-74
2020/12/09 08:53:36;;;;;;;33.47;19.85;;;4.40;1.00;;;;;;5067370;28;20230;-75
2020/12/09 08:56:03;;;;;;;29.02;18.38;;;4.40;1.00;;;;;;5066538;28;20235;-74
2020/12/09 08:58:31;;;;;;;30.50;19.05;;;4.40;1.00;;;;;;5065354;28;20216;-75
2020/12/09 09:01:00;;;;;;;31.30;17.92;;;4.40;1.00;;;;;;5044784;28;20239;-75
2020/12/09 09:03:28;;;;;;;29.40;19.17;;;4.50;1.00;;;;;;5066978;28;20593;-74
2020/12/09 09:05:58;;;;;;;30.75;19.65;;;4.50;1.00;;;;;;5063548;28;20310;-75
2020/12/09 09:08:26;;;;;;;31.45;20.08;;;4.50;1.00;;;;;;5065595;28;20625;-74
2020/12/09 09:10:54;;;;;;;29.15;18.33;;;4.50;1.00;;;;;;5064663;28;20235;-74
2020/12/09 09:13:22;;;;;;;28.98;18.92;;;4.50;1.00;;;;;;5066337;28;20224;-75
2020/12/09 09:15:49;;;;;;;34.85;19.33;;;4.50;1.00;;;;;;5067286;28;20228;-75
2020/12/09 09:18:17;;;;;;;28.23;19.02;;;4.50;1.00;;;;;;5065490;28;20684;-75
2020/12/09 09:20:44;;;;;;;30.73;20.90;;;4.50;1.00;;;;;;5063732;28;20215;-74
2020/12/09 09:23:12;;;;;;;32.70;19.65;;;4.50;1.00;;;;;;5064209;28;20262;-75
2020/12/09 09:25:40;;;;;;;31.85;20.02;;;4.50;1.00;;;;;;5064147;28;20232;-75
2020/12/09 09:28:08;;;;;;;33.33;21.23;;;4.50;1.00;;;;;;5063964;28;20315;-73
2020/12/09 09:30:35;;;;;;;32.78;21.23;;;4.40;1.00;;;;;;5062312;28;20223;-72
2020/12/09 09:33:03;;;;;;;30.67;20.55;;;4.40;1.00;;;;;;5063377;28;20236;-73
2020/12/09 09:35:30;;;;;;;35.40;22.05;;;4.40;1.00;;;;;;5064193;28;20235;-73
2020/12/09 09:37:57;;;;;;;29.55;20.90;;;4.30;1.00;;;;;;5066376;28;20216;-75
2020/12/09 09:40:25;;;;;;;31.98;22.90;;;4.30;1.00;;;;;;5065361;28;20283;-74
2020/12/09 09:42:55;;;;;;;32.67;21.40;;;4.40;1.00;;;;;;5063978;28;20212;-74
2020/12/09 09:45:25;;;;;;;37.42;21.83;;;4.40;1.00;;;;;;5066709;28;20318;-73
2020/12/09 09:47:52;;;;;;;38.13;23.42;;;4.40;1.00;;;;;;5063921;28;20208;-73
2020/12/09 09:50:20;;;;;;;35.08;22.67;;;4.30;1.00;;;;;;5066632;28;20222;-74
2020/12/09 09:52:48;;;;;;;31.02;21.15;;;4.30;1.00;;;;;;5064039;28;20223;-74
2020/12/09 09:55:16;;;;;;;33.47;21.05;;;4.30;1.00;;;;;;5065502;28;20229;-74
2020/12/09 09:57:43;;;;;;;31.45;20.50;;;4.30;1.00;;;;;;5063213;28;20236;-74
2020/12/09 10:00:10;;;;;;;30.98;20.85;;;4.40;1.00;;;;;;5061304;28;20218;-74
2020/12/09 10:02:38;;;;;;;32.85;22.58;;;4.50;1.00;;;;;;5063415;28;20265;-74
2020/12/09 10:05:06;;;;;;;36.70;23.08;;;4.50;1.00;;;;;;5065081;28;20610;-73
2020/12/09 10:07:34;;;;;;;34.08;21.98;;;4.50;1.00;;;;;;5064629;28;20239;-73
2020/12/09 10:10:03;;;;;;;31.27;19.80;;;4.50;1.00;;;;;;5065266;28;20219;-74
2020/12/09 10:12:31;;;;;;;29.85;19.38;;;4.60;1.00;;;;;;5063424;28;20224;-74
2020/12/09 10:14:59;;;;;;;28.52;19.58;;;4.50;1.00;;;;;;5065556;28;20577;-74
2020/12/09 10:17:26;;;;;;;29.25;18.33;;;4.50;1.00;;;;;;5064044;28;20232;-75
2020/12/09 10:19:54;;;;;;;30.92;18.77;;;4.60;1.00;;;;;;5067465;28;20217;-73
2020/12/09 10:22:23;;;;;;;31.02;20.08;;;4.60;1.00;;;;;;5066058;28;20269;-74
2020/12/09 10:24:50;;;;;;;27.08;18.67;;;4.60;1.00;;;;;;5065420;28;20219;-74
2020/12/09 10:27:17;;;;;;;31.80;19.80;;;4.60;1.00;;;;;;5065087;28;20249;-74
2020/12/09 10:29:45;;;;;;;30.08;20.65;;;4.70;1.00;;;;;;5067241;28;20240;-74
2020/12/09 10:32:12;;;;;;;29.52;17.98;;;4.70;1.00;;;;;;5067757;28;20260;-74
2020/12/09 10:34:40;;;;;;;28.40;18.83;;;4.70;1.00;;;;;;5068093;28;20232;-74
2020/12/09 10:37:10;;;;;;;27.48;18.38;;;4.60;1.00;;;;;;5067405;28;20596;-74
2020/12/09 10:39:37;;;;;;;27.58;18.88;;;4.40;1.00;;;;;;5067929;28;20212;-74
2020/12/09 10:42:04;;;;;;;34.15;19.95;;;4.40;1.00;;;;;;5071926;28;20206;-73
2020/12/09 10:44:32;;;;;;;25.30;18.98;;;4.40;1.00;;;;;;5068186;28;20255;-74
2020/12/09 10:47:01;;;;;;;26.85;17.77;;;4.50;1.00;;;;;;5066547;28;20607;-74
2020/12/09 10:49:32;;;;;;;27.83;18.48;;;4.50;1.00;;;;;;5070990;28;20302;-74
2020/12/09 10:52:00;;;;;;;30.98;17.88;;;4.50;1.00;;;;;;5066253;28;20218;-74
2020/12/09 10:54:28;;;;;;;25.85;18.23;;;4.50;1.00;;;;;;5069401;28;20240;-74
2020/12/09 10:57:10;;;;;;;26.42;17.00;;;4.50;1.00;;;;;;5066465;28;20238;-74
2020/12/09 10:59:38;;;;;;;25.35;17.35;;;4.50;1.00;;;;;;5067702;28;20595;-74
2020/12/09 11:02:05;;;;;;;28.10;17.40;;;4.50;1.00;;;;;;5067410;28;20236;-73
2020/12/09 11:04:32;;;;;;;25.20;16.75;;;4.50;1.00;;;;;;5066427;28;20434;-74
2020/12/09 11:07:05;;;;;;;28.13;17.92;;;4.50;1.00;;;;;;5065224;28;20238;-74
2020/12/09 11:09:33;;;;;;;31.05;17.27;;;4.50;1.00;;;;;;5069430;28;20312;-74
2020/12/09 11:12:00;;;;;;;31.60;19.33;;;4.60;1.00;;;;;;5068661;28;20219;-74
2020/12/09 11:14:27;;;;;;;26.20;18.13;;;4.60;1.00;;;;;;5068583;28;20230;-74
2020/12/09 11:16:54;;;;;;;23.02;15.75;;;4.60;1.00;;;;;;5066457;28;20231;-73
2020/12/09 11:19:22;;;;;;;25.73;16.92;;;4.50;1.00;;;;;;5068426;28;20262;-74
2020/12/09 11:21:51;;;;;;;27.50;18.45;;;4.50;1.00;;;;;;5070127;28;20232;-74
2020/12/09 11:24:18;;;;;;;24.67;17.38;;;4.50;1.00;;;;;;5066617;28;20216;-74
2020/12/09 11:26:46;;;;;;;26.13;18.05;;;4.50;1.00;;;;;;5067714;28;20236;-74
2020/12/09 11:29:14;;;;;;;26.75;17.10;;;4.50;1.00;;;;;;5068027;28;20220;-74
2020/12/09 11:31:41;;;;;;;27.60;18.42;;;4.40;1.00;;;;;;5067503;28;20235;-74
2020/12/09 11:34:08;;;;;;;26.00;17.15;;;4.30;1.00;;;;;;5068607;28;20237;-74
2020/12/09 11:36:35;;;;;;;29.63;18.83;;;4.30;1.00;;;;;;5065578;28;20248;-75
2020/12/09 11:39:03;;;;;;;33.72;20.20;;;4.40;1.00;;;;;;5066665;28;20230;-74
2020/12/09 11:41:33;;;;;;;35.08;19.65;;;4.40;1.00;;;;;;5067687;28;20220;-74
2020/12/09 11:44:02;;;;;;;29.02;18.30;;;4.40;1.00;;;;;;5064282;28;20833;-74
2020/12/09 11:46:29;;;;;;;28.95;17.42;;;4.50;1.00;;;;;;5068589;28;20295;-74
2020/12/09 11:48:56;;;;;;;26.50;17.77;;;4.50;1.00;;;;;;5065541;28;20226;-74
2020/12/09 11:51:24;;;;;;;28.38;17.42;;;4.50;1.00;;;;;;5069984;28;20218;-74
2020/12/09 11:53:51;;;;;;;24.10;17.73;;;4.50;1.00;;;;;;5067459;28;20235;-74
2020/12/09 11:56:22;;;;;;;29.15;18.60;;;4.60;1.00;;;;;;5066221;28;20619;-74
2020/12/09 11:58:50;;;;;;;32.03;18.80;;;4.60;1.00;;;;;;5066838;28;20282;-74
2020/12/09 12:01:18;;;;;;;29.20;18.15;;;4.60;1.00;;;;;;5066084;28;21920;-74
2020/12/09 12:03:47;;;;;;;29.92;19.85;;;4.70;1.00;;;;;;5062682;28;20272;-74
2020/12/09 12:06:20;;;;;;;30.00;19.70;;;4.70;1.00;;;;;;5066129;28;20239;-74
2020/12/09 12:08:47;;;;;;;27.48;19.25;;;4.70;1.00;;;;;;5063609;28;20879;-74
2020/12/09 12:11:15;;;;;;;26.75;19.10;;;4.60;1.00;;;;;;5067066;28;20216;-74
2020/12/09 12:13:43;;;;;;;33.13;21.50;;;4.70;1.00;;;;;;5065918;28;20246;-72
2020/12/09 12:16:15;;;;;;;34.33;20.73;;;4.70;1.00;;;;;;5063396;28;20681;-75
2020/12/09 12:18:44;;;;;;;31.35;21.10;;;4.60;1.00;;;;;;5064201;28;20605;-75
2020/12/09 12:21:12;;;;;;;30.67;18.88;;;4.60;1.00;;;;;;5065446;28;20216;-74
2020/12/09 12:23:39;;;;;;;31.10;19.20;;;4.60;1.00;;;;;;5065341;28;20204;-74
2020/12/09 12:26:07;;;;;;;28.50;18.90;;;4.70;1.00;;;;;;5066643;28;20231;-73
2020/12/09 12:28:35;;;;;;;34.83;20.13;;;4.70;1.00;;;;;;5064141;28;20207;-74
2020/12/09 12:31:02;;;;;;;28.02;18.27;;;4.60;1.00;;;;;;5062658;28;20233;-74
2020/12/09 12:33:29;;;;;;;33.72;20.38;;;4.70;1.00;;;;;;5064933;28;20285;-74
2020/12/09 12:35:57;;;;;;;31.52;19.38;;;4.60;1.00;;;;;;5064206;28;20284;-74
2020/12/09 12:38:24;;;;;;;30.13;19.80;;;4.60;1.00;;;;;;5065559;28;20915;-73
2020/12/09 12:40:52;;;;;;;29.08;18.92;;;4.60;1.00;;;;;;5065608;28;20760;-73
2020/12/09 12:43:19;;;;;;;32.22;19.80;;;4.70;1.00;;;;;;5063868;28;20213;-72
2020/12/09 12:45:46;;;;;;;39.03;19.63;;;4.60;1.00;;;;;;5063402;28;20327;-74
2020/12/09 12:48:13;;;;;;;27.60;17.08;;;4.60;1.00;;;;;;5064338;28;20241;-73
2020/12/09 12:50:41;;;;;;;32.53;20.40;;;4.60;1.00;;;;;;5061482;28;20213;-73
2020/12/09 12:53:09;;;;;;;37.33;19.98;;;4.70;1.00;;;;;;5058841;28;20246;-72